Portada
METAR-TAF:

METAR-TAF

Aeropuertos :

Hoonah, Alaska, Estados Unidos

latitud: 58-07N, longitud: 135-27W, altitud: 0 m

Observación

El informe se hizo hace 22 minutos, a las 07:56 UTC
Viento calma
Temperatura 4°C
Humedad 100%
Presión 1022 hPa
Visibilidad: 16.1 km
Cielo nuboso a una altura de 3200 ft
Cielo cubierto a una altura de 4600 ft
lluvia ligera

METAR: PAOH 240756Z AUTO 00000KT 10SM -RA BKN032 OVC046 04/04 A3017 RMK AO2 SLP217 P0000 T00390039 400670039

Hora: 00:18 (08:18 UTC)


TAF: falta

Observaciones y pronósticos meteorológicos de más de 4000 aeropuertos (mensajes METAR y TAF).

Los puntos amarillos y rojos representan las estaciones disponibles.

Ponga el ratón en el punto deseado para ver el nombre de la estación.

Haga clic para ver las observaciones y los pronósticos meteorológicos.

Para cambiar el mapa : haga clic en los botones verdes con una cruz de color negro para hacer un zoom, en el botón verde con un guión para alejar o en las flechas verdes para mapas adyacentes.


METAR-TAF: